Time;durP1;ratioP1;P1;durP2;ratioP2;P2;SDS_P1;SDS_P2;PMS_P1;PMS_P2;Temp;Humidity;BMP_temperature;BMP_pressure;BME280_temperature;BME280_humidity;BME280_pressure;Samples;Min_cycle;Max_cycle;Signal;HPM_P1;HPM_P2
2023/04/15 00:01:09;;;;;;;10.25;7.68;;;9.60;99.90;;;;;;4976338;28;20481;-86
2023/04/15 00:03:35;;;;;;;10.32;8.02;;;9.60;99.90;;;;;;4959235;28;20109;-88
2023/04/15 00:06:01;;;;;;;10.57;8.05;;;9.60;99.90;;;;;;4959398;28;20022;-85
2023/04/15 00:08:28;;;;;;;10.23;7.82;;;9.50;99.90;;;;;;4959057;28;20576;-84
2023/04/15 00:10:54;;;;;;;9.23;7.88;;;9.50;99.90;;;;;;4976295;28;20026;-85
2023/04/15 00:13:20;;;;;;;8.55;7.63;;;9.50;99.90;;;;;;4976535;28;20023;-84
2023/04/15 00:15:46;;;;;;;13.25;8.73;;;9.50;99.90;;;;;;4958899;28;20465;-85
2023/04/15 00:18:12;;;;;;;11.77;8.00;;;9.50;99.90;;;;;;4958859;28;20030;-87
2023/04/15 00:20:38;;;;;;;9.63;8.07;;;9.40;99.90;;;;;;4959006;28;20157;-85
2023/04/15 00:23:04;;;;;;;11.23;7.82;;;9.40;99.90;;;;;;4976409;28;20134;-88
2023/04/15 00:25:30;;;;;;;10.07;7.70;;;9.30;99.90;;;;;;4958781;28;20034;-87
2023/04/15 00:27:56;;;;;;;9.85;7.57;;;9.30;99.90;;;;;;4976045;28;20058;-85
2023/04/15 00:30:22;;;;;;;10.98;7.97;;;9.30;99.90;;;;;;4958879;28;20066;-84
2023/04/15 00:32:48;;;;;;;10.35;8.45;;;9.20;99.90;;;;;;4958649;28;20070;-88
2023/04/15 00:35:14;;;;;;;9.82;8.40;;;9.20;99.90;;;;;;4976041;28;20018;-87
2023/04/15 00:37:40;;;;;;;8.07;7.10;;;9.20;99.90;;;;;;4958795;28;20050;-84
2023/04/15 00:40:09;;;;;;;9.93;7.68;;;9.10;99.90;;;;;;4975954;28;20076;-87
2023/04/15 00:42:35;;;;;;;9.75;7.45;;;9.10;99.90;;;;;;4957894;28;20046;-85
2023/04/15 00:45:01;;;;;;;11.02;8.63;;;9.00;99.90;;;;;;4975756;28;20035;-87
2023/04/15 00:47:28;;;;;;;11.23;8.48;;;9.00;99.90;;;;;;4976063;28;20496;-86
2023/04/15 00:49:54;;;;;;;12.80;8.73;;;9.00;99.90;;;;;;4976204;28;20069;-88
2023/04/15 00:52:20;;;;;;;11.45;8.43;;;9.00;99.90;;;;;;4958339;28;20031;-87
2023/04/15 00:54:46;;;;;;;9.73;7.55;;;9.10;99.90;;;;;;4975637;28;20078;-87
2023/04/15 00:57:15;;;;;;;11.70;7.82;;;9.00;99.90;;;;;;4958628;28;20019;-85
2023/04/15 00:59:41;;;;;;;10.88;8.40;;;9.10;99.90;;;;;;4975030;28;20388;-89
2023/04/15 01:02:07;;;;;;;10.68;8.05;;;9.10;99.90;;;;;;4975671;28;20098;-85
2023/04/15 01:04:33;;;;;;;10.52;7.88;;;9.10;99.90;;;;;;4975450;28;20026;-88
2023/04/15 01:06:59;;;;;;;10.27;8.27;;;9.10;99.90;;;;;;4958407;28;20473;-84
2023/04/15 01:09:25;;;;;;;10.57;7.80;;;9.10;99.90;;;;;;4957924;28;20374;-87
2023/04/15 01:11:51;;;;;;;10.40;7.45;;;9.10;99.90;;;;;;4958053;28;20025;-85
2023/04/15 01:14:17;;;;;;;10.23;7.35;;;9.10;99.90;;;;;;4975003;28;20039;-84
2023/04/15 01:16:44;;;;;;;7.55;6.60;;;9.10;99.90;;;;;;4974937;28;20099;-87
2023/04/15 01:19:10;;;;;;;10.68;6.57;;;9.10;99.90;;;;;;4975094;28;20018;-87
2023/04/15 01:21:38;;;;;;;9.18;6.88;;;9.10;99.90;;;;;;4957576;28;20030;-84
2023/04/15 01:24:09;;;;;;;8.77;6.93;;;9.00;99.90;;;;;;4975041;28;20543;-85
2023/04/15 01:26:39;;;;;;;10.38;7.35;;;9.00;99.90;;;;;;4960056;28;20438;-87
2023/04/15 01:29:05;;;;;;;10.02;6.57;;;9.00;99.90;;;;;;4994368;28;20090;-85
2023/04/15 01:31:31;;;;;;;8.02;7.00;;;8.90;99.90;;;;;;4994261;28;20010;-87
2023/04/15 01:33:58;;;;;;;10.07;7.68;;;8.90;99.90;;;;;;4977389;28;20033;-87
2023/04/15 01:36:24;;;;;;;9.82;7.65;;;8.90;99.90;;;;;;4994377;28;20157;-85
2023/04/15 01:38:50;;;;;;;8.90;6.90;;;8.90;99.90;;;;;;4994399;28;20490;-89
2023/04/15 01:41:20;;;;;;;9.50;6.88;;;8.80;99.90;;;;;;4986783;28;20165;-85
2023/04/15 01:43:46;;;;;;;10.40;7.22;;;8.80;99.90;;;;;;4974754;28;20030;-87
2023/04/15 01:46:11;;;;;;;9.20;7.20;;;8.80;99.90;;;;;;4974644;28;20031;-85
2023/04/15 01:48:37;;;;;;;11.77;6.97;;;8.80;99.90;;;;;;4974883;28;20062;-87
2023/04/15 01:51:03;;;;;;;8.18;6.43;;;8.80;99.90;;;;;;4957693;28;20105;-84
2023/04/15 01:53:29;;;;;;;8.57;6.85;;;8.70;99.90;;;;;;4956891;28;20055;-85
2023/04/15 01:55:55;;;;;;;9.15;7.07;;;8.80;99.90;;;;;;4957118;28;20027;-87
2023/04/15 01:58:21;;;;;;;7.95;6.60;;;8.80;99.90;;;;;;4974742;28;20377;-85
2023/04/15 02:00:47;;;;;;;8.95;7.00;;;8.70;99.90;;;;;;4974399;28;20069;-87
2023/04/15 02:03:12;;;;;;;10.02;7.00;;;8.70;99.90;;;;;;4974457;28;20023;-87
2023/04/15 02:05:38;;;;;;;7.80;6.93;;;8.70;99.90;;;;;;4973867;28;20063;-84
2023/04/15 02:08:04;;;;;;;8.50;6.75;;;8.70;99.90;;;;;;4957302;28;20030;-87
2023/04/15 02:10:30;;;;;;;8.65;7.10;;;8.60;99.90;;;;;;4974156;28;20097;-85
2023/04/15 02:12:56;;;;;;;11.07;6.57;;;8.60;99.90;;;;;;4974372;28;20023;-85
2023/04/15 02:15:21;;;;;;;9.00;6.85;;;8.60;99.90;;;;;;4973613;28;20382;-86
2023/04/15 02:17:49;;;;;;;6.85;6.10;;;8.70;99.90;;;;;;4956841;28;20031;-85
2023/04/15 02:20:16;;;;;;;9.50;7.10;;;8.60;99.90;;;;;;4956883;28;20108;-87
2023/04/15 02:22:42;;;;;;;8.30;6.68;;;8.60;99.90;;;;;;4956850;28;20037;-84
2023/04/15 02:25:08;;;;;;;8.15;6.30;;;8.60;99.90;;;;;;4957019;28;20023;-87
2023/04/15 02:27:37;;;;;;;8.32;7.40;;;8.50;99.90;;;;;;4956690;28;20110;-84
2023/04/15 02:30:03;;;;;;;10.38;7.47;;;8.60;99.90;;;;;;4974050;28;20042;-85
2023/04/15 02:32:29;;;;;;;7.28;5.97;;;8.50;99.90;;;;;;4974306;28;20029;-87
2023/04/15 02:34:55;;;;;;;7.95;6.55;;;8.50;99.90;;;;;;4973751;28;20098;-87
2023/04/15 02:37:20;;;;;;;8.77;7.43;;;8.40;99.90;;;;;;4956539;28;20073;-84
2023/04/15 02:39:46;;;;;;;7.28;6.15;;;8.40;99.90;;;;;;4973520;28;20454;-87
2023/04/15 02:42:12;;;;;;;8.13;6.45;;;8.40;99.90;;;;;;4956880;28;20477;-87
2023/04/15 02:44:39;;;;;;;6.85;6.15;;;8.40;99.90;;;;;;4974100;28;20046;-85
2023/04/15 02:47:05;;;;;;;8.10;6.82;;;8.40;99.90;;;;;;4973805;28;20062;-85
2023/04/15 02:49:31;;;;;;;8.13;6.25;;;8.40;99.90;;;;;;4973624;28;20035;-87
2023/04/15 02:51:58;;;;;;;7.53;6.45;;;8.40;99.90;;;;;;4973868;28;20057;-86
2023/04/15 02:54:27;;;;;;;9.45;5.50;;;8.40;99.90;;;;;;4973897;28;20043;-88
2023/04/15 02:56:55;;;;;;;9.43;6.10;;;8.40;99.90;;;;;;4956322;28;20436;-85
2023/04/15 02:59:20;;;;;;;9.25;7.38;;;8.40;99.90;;;;;;4956423;28;20105;-84
2023/04/15 03:01:46;;;;;;;9.15;6.57;;;8.40;99.90;;;;;;4956669;28;20070;-85
2023/04/15 03:04:13;;;;;;;7.85;6.13;;;8.40;99.90;;;;;;4973594;28;20473;-87
2023/04/15 03:06:39;;;;;;;6.75;6.05;;;8.40;99.90;;;;;;4973728;28;20081;-84
2023/04/15 03:09:04;;;;;;;8.20;6.57;;;8.30;99.90;;;;;;4956562;28;20038;-87
2023/04/15 03:11:30;;;;;;;7.82;6.18;;;8.30;99.90;;;;;;4956562;28;20466;-85
2023/04/15 03:13:57;;;;;;;9.82;6.70;;;8.20;99.90;;;;;;4956684;28;20106;-85
2023/04/15 03:16:23;;;;;;;8.20;6.55;;;8.20;99.90;;;;;;4973573;28;20026;-87
2023/04/15 03:18:48;;;;;;;7.55;6.20;;;8.10;99.90;;;;;;4973718;28;20026;-87
2023/04/15 03:21:14;;;;;;;9.98;6.55;;;8.10;99.90;;;;;;4973617;28;20046;-84
2023/04/15 03:23:40;;;;;;;9.40;6.60;;;8.10;99.90;;;;;;4974035;28;20058;-87
2023/04/15 03:26:06;;;;;;;8.30;6.93;;;8.10;99.90;;;;;;4973904;28;20029;-87
2023/04/15 03:28:31;;;;;;;9.65;6.57;;;8.10;99.90;;;;;;4977358;28;20031;-84
2023/04/15 03:30:58;;;;;;;8.90;6.60;;;8.10;99.90;;;;;;4977029;28;20102;-86
2023/04/15 03:33:23;;;;;;;11.75;6.95;;;8.00;99.90;;;;;;4976963;28;20027;-86
2023/04/15 03:35:50;;;;;;;10.65;6.53;;;8.00;99.90;;;;;;4959801;28;20559;-87
2023/04/15 03:38:16;;;;;;;10.68;6.53;;;8.00;99.90;;;;;;4976886;28;20157;-86
2023/04/15 03:40:42;;;;;;;7.40;6.13;;;8.00;99.90;;;;;;4959351;28;20085;-84
2023/04/15 03:43:08;;;;;;;6.95;6.07;;;7.90;99.90;;;;;;4976785;28;20493;-87
2023/04/15 03:45:34;;;;;;;8.10;5.97;;;7.90;99.90;;;;;;4981276;28;20033;-85
2023/04/15 03:48:00;;;;;;;8.88;6.95;;;7.80;99.90;;;;;;4993669;28;20037;-87
2023/04/15 03:50:26;;;;;;;8.15;5.80;;;7.80;99.90;;;;;;4996152;28;20114;-87
2023/04/15 03:52:52;;;;;;;8.68;5.82;;;7.80;99.90;;;;;;4995697;28;20042;-85
2023/04/15 03:55:18;;;;;;;7.60;5.55;;;7.80;99.90;;;;;;4978957;28;20030;-85
2023/04/15 03:57:44;;;;;;;8.40;5.80;;;7.70;99.90;;;;;;4996123;28;20057;-84
2023/04/15 04:00:10;;;;;;;7.57;6.32;;;7.70;99.90;;;;;;4995773;28;20038;-87
2023/04/15 04:02:36;;;;;;;6.65;5.88;;;7.70;99.90;;;;;;4995986;28;20022;-87
2023/04/15 04:05:02;;;;;;;8.30;6.05;;;7.60;99.90;;;;;;4995886;28;20026;-85
2023/04/15 04:07:27;;;;;;;7.70;6.00;;;7.60;99.90;;;;;;4996020;28;20034;-86
2023/04/15 04:09:53;;;;;;;9.88;6.38;;;7.70;99.90;;;;;;4995785;28;20073;-85
2023/04/15 04:12:19;;;;;;;7.72;5.80;;;7.70;99.90;;;;;;4995910;28;20424;-86
2023/04/15 04:14:44;;;;;;;7.05;5.95;;;7.70;99.90;;;;;;4990032;28;20055;-84
2023/04/15 04:17:10;;;;;;;8.63;6.47;;;7.70;99.90;;;;;;4984387;28;20417;-84
2023/04/15 04:19:36;;;;;;;5.25;4.75;;;7.70;99.90;;;;;;4986024;28;20019;-84
2023/04/15 04:22:02;;;;;;;8.93;6.38;;;7.70;99.90;;;;;;4986019;28;20031;-84
2023/04/15 04:24:27;;;;;;;7.65;5.82;;;7.70;99.90;;;;;;4975342;28;20038;-87
2023/04/15 04:26:53;;;;;;;7.68;5.97;;;7.60;99.90;;;;;;4987347;28;20072;-86
2023/04/15 04:29:19;;;;;;;8.95;6.35;;;7.60;99.90;;;;;;4968938;28;20041;-84
2023/04/15 04:31:47;;;;;;;7.55;6.00;;;7.60;99.90;;;;;;4983139;28;20073;-87
2023/04/15 04:34:13;;;;;;;7.53;5.97;;;7.60;99.90;;;;;;4959032;28;20050;-87
2023/04/15 04:36:38;;;;;;;7.70;6.22;;;7.60;99.90;;;;;;4974004;28;20076;-84
2023/04/15 04:39:04;;;;;;;12.10;8.80;;;7.70;99.90;;;;;;4959065;28;20390;-87
2023/04/15 04:41:31;;;;;;;12.88;7.53;;;7.70;99.90;;;;;;4975928;28;20358;-87
2023/04/15 04:43:56;;;;;;;11.30;7.80;;;7.70;99.90;;;;;;4980960;28;20019;-86
2023/04/15 04:46:22;;;;;;;11.05;7.72;;;7.60;99.90;;;;;;4968328;28;20089;-86
2023/04/15 04:48:48;;;;;;;11.88;8.55;;;7.60;99.90;;;;;;4966905;28;20026;-84
2023/04/15 04:51:14;;;;;;;22.13;11.32;;;7.50;99.90;;;;;;4984676;28;20048;-84
2023/04/15 04:53:41;;;;;;;16.67;10.20;;;7.50;99.90;;;;;;4989636;28;20065;-87
2023/04/15 04:56:07;;;;;;;13.57;8.63;;;7.50;99.90;;;;;;4975888;28;20551;-87
2023/04/15 04:58:33;;;;;;;18.88;13.18;;;7.50;99.90;;;;;;4994095;28;20058;-85
2023/04/15 05:00:59;;;;;;;15.27;10.55;;;7.50;99.90;;;;;;4994967;28;20022;-87
2023/04/15 05:03:24;;;;;;;14.65;9.20;;;7.50;99.90;;;;;;4994664;28;20026;-87
2023/04/15 05:05:50;;;;;;;18.05;12.10;;;7.60;99.90;;;;;;4994976;28;20037;-87
2023/04/15 05:08:16;;;;;;;19.15;11.98;;;7.60;99.90;;;;;;4977222;28;20117;-87
2023/04/15 05:10:42;;;;;;;22.10;13.50;;;7.60;99.90;;;;;;4991483;28;20038;-86
2023/04/15 05:13:07;;;;;;;18.08;10.70;;;7.60;99.90;;;;;;4966272;28;20015;-84
2023/04/15 05:15:35;;;;;;;16.88;11.18;;;7.60;99.90;;;;;;4984839;28;20022;-85
2023/04/15 05:18:02;;;;;;;16.30;9.98;;;7.70;99.90;;;;;;4985229;28;20374;-85
2023/04/15 05:20:27;;;;;;;13.55;9.77;;;7.70;99.90;;;;;;4965805;28;20019;-87
2023/04/15 05:22:53;;;;;;;16.15;9.82;;;7.80;99.90;;;;;;4988880;28;20034;-85
2023/04/15 05:25:20;;;;;;;18.55;10.98;;;7.80;99.90;;;;;;4976626;28;20026;-84
2023/04/15 05:27:46;;;;;;;15.60;11.07;;;7.80;99.90;;;;;;4977185;28;20026;-84
2023/04/15 05:30:12;;;;;;;16.08;10.38;;;7.80;99.90;;;;;;4994441;28;20049;-87
2023/04/15 05:32:37;;;;;;;47.70;28.05;;;7.90;99.90;;;;;;4976996;28;20030;-87
2023/04/15 05:35:03;;;;;;;15.27;10.55;;;7.90;99.90;;;;;;4967195;28;20019;-87
2023/04/15 05:37:29;;;;;;;18.33;11.95;;;8.00;99.90;;;;;;4974743;28;20362;-86
2023/04/15 05:39:55;;;;;;;13.70;9.68;;;8.00;99.90;;;;;;4979426;28;20141;-85
2023/04/15 05:42:21;;;;;;;9.68;7.78;;;8.10;99.90;;;;;;4991148;28;20022;-86
2023/04/15 05:44:47;;;;;;;11.30;7.72;;;8.00;99.90;;;;;;4976474;28;20346;-86
2023/04/15 05:47:13;;;;;;;9.77;7.72;;;8.10;99.90;;;;;;4965498;28;20437;-84
2023/04/15 05:49:38;;;;;;;9.85;7.95;;;8.10;99.90;;;;;;4984807;28;20076;-86
2023/04/15 05:52:04;;;;;;;11.02;8.60;;;8.20;99.90;;;;;;4989945;28;20030;-86
2023/04/15 05:54:30;;;;;;;10.93;7.78;;;8.30;99.90;;;;;;4986505;28;20093;-87
2023/04/15 05:56:57;;;;;;;11.73;9.13;;;8.40;99.90;;;;;;4984394;28;20381;-88
2023/04/15 05:59:22;;;;;;;10.77;8.68;;;8.50;99.90;;;;;;4983533;28;20025;-86
2023/04/15 06:01:48;;;;;;;11.13;8.15;;;8.70;99.90;;;;;;4991527;28;20022;-86
2023/04/15 06:04:15;;;;;;;15.98;8.77;;;8.80;99.90;;;;;;4982667;28;20027;-84
2023/04/15 06:06:44;;;;;;;10.20;5.90;;;8.90;99.90;;;;;;4966534;28;20053;-85
2023/04/15 06:09:19;;;;;;;10.43;7.30;;;9.00;99.90;;;;;;4981960;28;20114;-85
2023/04/15 06:11:44;;;;;;;9.70;6.60;;;9.10;99.90;;;;;;4973852;28;20526;-85
2023/04/15 06:14:13;;;;;;;7.65;5.50;;;9.30;99.90;;;;;;4970202;28;20038;-85
2023/04/15 06:16:39;;;;;;;8.30;5.75;;;9.20;99.90;;;;;;4964460;28;20068;-85
2023/04/15 06:19:11;;;;;;;5.82;4.55;;;9.30;99.90;;;;;;4983458;28;20022;-85
2023/04/15 06:21:37;;;;;;;8.43;5.25;;;9.30;99.90;;;;;;4981016;28;20027;-85
2023/04/15 06:24:12;;;;;;;7.22;4.78;;;9.40;99.90;;;;;;4967505;28;20018;-85
2023/04/15 06:26:41;;;;;;;6.72;4.15;;;9.40;99.90;;;;;;4976394;28;20067;-85
2023/04/15 06:29:06;;;;;;;4.85;4.13;;;9.40;97.20;;;;;;4980117;28;20171;-85
2023/04/15 06:31:32;;;;;;;5.50;4.68;;;9.50;97.80;;;;;;4962488;28;20051;-84
2023/04/15 06:33:58;;;;;;;6.25;4.93;;;9.70;97.80;;;;;;4978941;28;20029;-84
2023/04/15 06:36:24;;;;;;;4.80;3.83;;;9.80;95.40;;;;;;4980074;28;20380;-85
2023/04/15 06:38:50;;;;;;;4.43;3.38;;;9.90;94.90;;;;;;4977480;28;20101;-85
2023/04/15 06:41:16;;;;;;;5.32;4.38;;;10.00;90.60;;;;;;4979828;28;20023;-85
2023/04/15 06:43:42;;;;;;;9.60;8.60;;;10.00;90.20;;;;;;4982001;28;20057;-86
2023/04/15 06:46:08;;;;;;;12.18;9.20;;;10.10;85.20;;;;;;4965849;28;20088;-85
2023/04/15 06:48:34;;;;;;;6.35;4.07;;;10.10;83.50;;;;;;4980302;28;20138;-86
2023/04/15 06:51:00;;;;;;;5.05;4.35;;;10.10;82.50;;;;;;4982368;28;20044;-85
2023/04/15 06:53:28;;;;;;;7.20;3.80;;;10.20;81.30;;;;;;4962286;28;20138;-86
2023/04/15 06:55:54;;;;;;;6.78;4.72;;;10.30;81.40;;;;;;4967716;28;20034;-87
2023/04/15 06:58:20;;;;;;;4.30;3.63;;;10.40;82.20;;;;;;4969029;28;20118;-87
2023/04/15 07:00:47;;;;;;;6.40;3.92;;;10.40;80.70;;;;;;4956012;28;20023;-85
2023/04/15 07:03:13;;;;;;;4.90;3.42;;;10.50;78.50;;;;;;4960857;28;20385;-85
2023/04/15 07:05:40;;;;;;;6.38;4.53;;;10.60;80.10;;;;;;4961943;28;20490;-86
2023/04/15 07:08:06;;;;;;;5.55;3.45;;;10.60;80.30;;;;;;4965860;28;20031;-85
2023/04/15 07:10:33;;;;;;;8.45;3.85;;;10.60;79.30;;;;;;4970385;28;20090;-87
2023/04/15 07:12:59;;;;;;;5.10;3.60;;;10.70;77.90;;;;;;4967586;28;20102;-87
2023/04/15 07:15:26;;;;;;;5.50;3.35;;;10.70;76.80;;;;;;4950814;28;20034;-85
2023/04/15 07:17:52;;;;;;;5.22;3.90;;;10.80;75.50;;;;;;4966054;28;20584;-85
2023/04/15 07:20:18;;;;;;;5.82;3.83;;;10.80;74.90;;;;;;4970301;28;20114;-86
2023/04/15 07:22:43;;;;;;;4.93;3.60;;;10.90;74.20;;;;;;4972286;28;20023;-88
2023/04/15 07:25:10;;;;;;;6.40;3.63;;;10.90;73.10;;;;;;4966199;28;20027;-86
2023/04/15 07:27:35;;;;;;;5.57;3.45;;;11.00;71.90;;;;;;4965206;28;20104;-85
2023/04/15 07:30:01;;;;;;;3.88;3.38;;;11.00;70.80;;;;;;4971118;28;20558;-88
2023/04/15 07:32:27;;;;;;;4.75;3.53;;;11.00;70.30;;;;;;4960609;28;20363;-87
2023/04/15 07:34:53;;;;;;;6.50;4.00;;;11.10;70.30;;;;;;4963100;28;20374;-85
2023/04/15 07:37:19;;;;;;;6.93;4.40;;;11.00;69.50;;;;;;4958420;28;20051;-84
2023/04/15 07:39:44;;;;;;;5.13;3.30;;;11.00;69.70;;;;;;4956496;28;20456;-85
2023/04/15 07:42:10;;;;;;;17.00;11.40;;;11.00;70.20;;;;;;4958762;28;20035;-86
2023/04/15 07:44:36;;;;;;;7.72;5.35;;;10.90;73.00;;;;;;4965748;28;20058;-86
2023/04/15 07:47:20;;;;;;;5.22;3.47;;;11.00;71.40;;;;;;4958723;28;20034;-87
2023/04/15 07:49:46;;;;;;;5.95;4.32;;;11.00;67.60;;;;;;4952103;28;20047;-87
2023/04/15 07:52:12;;;;;;;9.48;5.45;;;11.10;70.50;;;;;;4952908;29;20030;-85
2023/04/15 07:54:38;;;;;;;6.30;3.88;;;11.10;71.40;;;;;;4969195;28;20093;-86
2023/04/15 07:57:04;;;;;;;9.23;5.00;;;11.20;70.50;;;;;;4955201;28;20024;-86
2023/04/15 07:59:32;;;;;;;7.15;4.22;;;11.20;70.00;;;;;;4955259;28;20042;-87
2023/04/15 08:02:01;;;;;;;5.15;3.47;;;11.20;65.20;;;;;;4955427;29;20142;-85
2023/04/15 08:04:27;;;;;;;5.05;3.63;;;11.20;63.40;;;;;;4970228;28;20046;-86
2023/04/15 08:06:53;;;;;;;6.85;3.40;;;11.30;63.80;;;;;;4966377;28;20030;-87
2023/04/15 08:09:19;;;;;;;6.15;4.32;;;11.40;64.20;;;;;;4974822;28;20086;-85
2023/04/15 08:11:48;;;;;;;6.20;3.55;;;11.40;63.90;;;;;;4961488;28;20544;-86
2023/04/15 08:14:14;;;;;;;5.75;3.47;;;11.50;63.50;;;;;;4971178;28;20066;-85
2023/04/15 08:16:40;;;;;;;8.18;3.55;;;11.50;63.30;;;;;;4962011;28;20081;-85
2023/04/15 08:19:06;;;;;;;7.88;4.03;;;11.70;64.20;;;;;;4962382;28;20070;-87
2023/04/15 08:21:31;;;;;;;4.28;3.33;;;11.70;65.40;;;;;;4962912;28;20020;-85
2023/04/15 08:23:57;;;;;;;5.65;3.85;;;11.70;65.90;;;;;;4961545;28;20026;-87
2023/04/15 08:26:23;;;;;;;4.47;3.17;;;11.60;63.90;;;;;;4974565;28;20389;-85
2023/04/15 08:28:49;;;;;;;5.85;3.47;;;11.60;63.50;;;;;;4970736;28;20029;-84
2023/04/15 08:31:16;;;;;;;4.18;3.15;;;11.50;63.40;;;;;;4964572;28;20098;-84
2023/04/15 08:33:42;;;;;;;7.60;4.10;;;11.60;63.50;;;;;;4961656;28;20039;-86
2023/04/15 08:36:08;;;;;;;5.93;3.38;;;11.70;65.00;;;;;;4964908;28;20373;-86
2023/04/15 08:38:35;;;;;;;4.72;3.15;;;11.80;65.80;;;;;;4967706;28;20054;-86
2023/04/15 08:41:06;;;;;;;6.10;3.05;;;11.80;64.80;;;;;;4961901;28;20102;-87
2023/04/15 08:43:42;;;;;;;4.03;2.72;;;11.90;64.80;;;;;;4961528;28;20564;-86
2023/04/15 08:46:11;;;;;;;5.13;2.97;;;12.00;65.50;;;;;;4970850;28;20473;-85
2023/04/15 08:48:39;;;;;;;2.58;2.30;;;12.10;65.60;;;;;;4951987;29;20031;-86
2023/04/15 08:51:05;;;;;;;3.45;2.55;;;12.00;63.70;;;;;;4952342;28;20027;-85
2023/04/15 08:53:34;;;;;;;2.90;2.40;;;12.20;64.30;;;;;;4956056;28;20089;-84
2023/04/15 08:56:05;;;;;;;3.78;2.53;;;12.20;64.60;;;;;;4956865;28;20494;-84
2023/04/15 08:58:31;;;;;;;4.43;2.65;;;12.30;64.40;;;;;;4963634;28;20355;-86
2023/04/15 09:00:57;;;;;;;2.95;2.42;;;12.30;63.30;;;;;;4966397;28;20026;-87
2023/04/15 09:03:23;;;;;;;3.75;2.70;;;12.30;62.40;;;;;;4965454;28;20100;-84
2023/04/15 09:05:50;;;;;;;4.63;3.35;;;12.30;63.20;;;;;;4975098;28;20385;-87
2023/04/15 09:08:15;;;;;;;3.67;2.70;;;12.30;63.00;;;;;;4974847;28;20138;-87
2023/04/15 09:10:41;;;;;;;5.28;3.22;;;12.30;61.90;;;;;;4974414;28;20444;-87
2023/04/15 09:13:08;;;;;;;3.70;2.38;;;12.20;60.80;;;;;;4974007;28;20026;-85
2023/04/15 09:15:37;;;;;;;4.40;2.78;;;12.20;61.10;;;;;;4969112;28;20089;-85
2023/04/15 09:18:03;;;;;;;5.15;2.78;;;12.30;61.80;;;;;;4974959;28;20054;-87
2023/04/15 09:20:28;;;;;;;3.97;2.60;;;12.30;61.10;;;;;;4967076;28;20027;-87
2023/04/15 09:22:55;;;;;;;4.82;3.05;;;12.50;62.10;;;;;;4969964;28;20117;-86
2023/04/15 09:25:20;;;;;;;5.10;2.58;;;12.40;60.50;;;;;;4970528;28;20082;-87
2023/04/15 09:28:06;;;;;;;3.17;2.40;;;12.60;60.20;;;;;;4953949;28;20039;-84
2023/04/15 09:30:32;;;;;;;5.97;2.85;;;12.70;60.40;;;;;;4953668;28;20055;-86
2023/04/15 09:33:01;;;;;;;4.38;2.95;;;12.70;60.40;;;;;;4968034;28;20537;-84
2023/04/15 09:35:27;;;;;;;4.10;2.60;;;12.70;60.30;;;;;;4968487;28;20426;-85
2023/04/15 09:38:01;;;;;;;4.03;2.83;;;12.70;61.00;;;;;;4955198;29;20023;-85
2023/04/15 09:40:37;;;;;;;4.75;2.70;;;12.80;60.50;;;;;;4959513;28;20101;-87
2023/04/15 09:43:05;;;;;;;3.17;2.50;;;12.90;60.70;;;;;;4965380;28;20035;-87
2023/04/15 09:45:32;;;;;;;6.60;3.35;;;13.00;60.20;;;;;;4959897;28;20078;-85
2023/04/15 09:48:13;;;;;;;8.55;5.55;;;13.10;61.30;;;;;;4959608;28;20026;-84
2023/04/15 09:50:43;;;;;;;4.47;2.60;;;13.10;61.90;;;;;;4967401;28;20053;-87
2023/04/15 09:53:11;;;;;;;4.82;2.38;;;13.20;61.10;;;;;;4971921;28;20043;-86
2023/04/15 09:55:37;;;;;;;3.83;2.70;;;13.30;60.80;;;;;;4962444;28;20400;-86
2023/04/15 09:58:08;;;;;;;3.10;2.72;;;13.10;60.70;;;;;;4981974;28;20031;-85
2023/04/15 10:00:35;;;;;;;3.95;3.00;;;13.10;60.50;;;;;;4988613;28;20023;-88
2023/04/15 10:03:03;;;;;;;6.70;2.30;;;13.10;59.30;;;;;;4975044;28;20025;-87
2023/04/15 10:05:30;;;;;;;4.00;2.60;;;13.10;58.20;;;;;;4993004;28;20018;-85
2023/04/15 10:07:56;;;;;;;4.82;2.60;;;13.20;57.70;;;;;;4993808;28;20022;-87
2023/04/15 10:10:22;;;;;;;3.58;2.90;;;13.20;58.20;;;;;;4965543;28;20117;-87
2023/04/15 10:12:50;;;;;;;6.57;3.13;;;13.20;57.90;;;;;;4972415;28;20019;-85
2023/04/15 10:15:17;;;;;;;4.40;3.13;;;13.30;59.20;;;;;;4974573;28;20026;-87
2023/04/15 10:17:44;;;;;;;6.53;3.28;;;13.20;59.40;;;;;;4992451;28;20041;-87
2023/04/15 10:20:11;;;;;;;5.18;3.10;;;13.20;59.90;;;;;;4989089;28;20049;-84
2023/04/15 10:22:37;;;;;;;6.47;2.88;;;13.30;59.60;;;;;;4957433;28;20022;-86
2023/04/15 10:25:05;;;;;;;3.25;2.30;;;13.40;59.50;;;;;;4954056;28;20581;-85
2023/04/15 10:27:32;;;;;;;3.80;2.78;;;13.50;59.10;;;;;;4972292;28;20022;-87
2023/04/15 10:29:59;;;;;;;3.22;2.42;;;13.50;58.70;;;;;;4954653;28;20067;-87
2023/04/15 10:32:26;;;;;;;3.10;2.45;;;13.60;56.70;;;;;;4939289;28;20743;-85
2023/04/15 10:34:53;;;;;;;4.57;2.40;;;13.80;59.30;;;;;;4955947;28;20022;-85
2023/04/15 10:37:21;;;;;;;4.80;2.20;;;13.90;56.90;;;;;;4979078;28;20019;-84
2023/04/15 10:39:47;;;;;;;5.13;2.30;;;14.00;57.00;;;;;;4980275;28;20019;-85
2023/04/15 10:42:18;;;;;;;4.13;2.40;;;14.30;55.30;;;;;;4963276;28;20388;-88
2023/04/15 10:44:50;;;;;;;3.25;2.67;;;14.60;55.70;;;;;;4980489;28;20023;-85
2023/04/15 10:47:18;;;;;;;2.85;1.50;;;14.60;53.10;;;;;;4963446;28;20030;-85
2023/04/15 10:49:51;;;;;;;3.40;2.30;;;14.60;52.50;;;;;;4980223;28;20031;-85
2023/04/15 10:52:21;;;;;;;3.38;2.38;;;14.60;51.80;;;;;;4963095;28;20054;-87
2023/04/15 10:54:47;;;;;;;3.55;2.42;;;14.50;52.90;;;;;;4963220;28;20524;-86
2023/04/15 10:57:22;;;;;;;3.10;2.60;;;14.60;52.20;;;;;;4963259;28;20074;-85
2023/04/15 11:00:16;;;;;;;2.97;2.08;;;14.60;51.60;;;;;;4980267;28;20018;-87
2023/04/15 11:02:51;;;;;;;2.10;1.90;;;14.60;50.30;;;;;;4963245;28;20728;-85
2023/04/15 11:05:18;;;;;;;3.33;1.80;;;14.70;52.40;;;;;;4980121;28;20026;-85
2023/04/15 11:07:45;;;;;;;4.07;2.03;;;14.70;50.40;;;;;;4989162;28;20062;-87
2023/04/15 11:10:17;;;;;;;1.88;1.58;;;14.70;50.10;;;;;;4971287;28;20034;-85
2023/04/15 11:12:57;;;;;;;4.07;2.20;;;14.90;50.60;;;;;;4987196;28;20022;-87
2023/04/15 11:15:40;;;;;;;2.80;2.05;;;14.80;50.40;;;;;;4988958;28;20018;-84
2023/04/15 11:18:13;;;;;;;3.40;1.95;;;14.80;50.50;;;;;;4989290;28;20027;-85
2023/04/15 11:20:41;;;;;;;3.05;2.25;;;15.00;50.70;;;;;;4988041;28;20015;-85
2023/04/15 11:23:07;;;;;;;3.47;2.05;;;14.90;50.60;;;;;;4971908;28;20117;-85
2023/04/15 11:25:36;;;;;;;3.28;2.13;;;15.00;51.10;;;;;;4990444;28;20030;-87
2023/04/15 11:28:02;;;;;;;4.70;2.72;;;15.10;51.20;;;;;;4970946;28;20022;-86
2023/04/15 11:30:31;;;;;;;3.08;2.33;;;15.30;50.70;;;;;;4988543;28;20098;-84
2023/04/15 11:33:23;;;;;;;2.20;2.00;;;15.50;50.30;;;;;;4990161;28;20098;-86
2023/04/15 11:35:51;;;;;;;2.50;1.83;;;15.30;49.60;;;;;;4983999;28;20033;-85
2023/04/15 11:38:17;;;;;;;2.60;1.65;;;15.10;49.40;;;;;;4975565;28;20242;-86
2023/04/15 11:40:44;;;;;;;2.65;1.60;;;15.10;48.90;;;;;;4988252;28;20106;-87
2023/04/15 11:43:12;;;;;;;2.05;1.45;;;15.20;49.10;;;;;;4969673;28;20040;-85
2023/04/15 11:45:50;;;;;;;1.90;1.48;;;15.30;48.70;;;;;;4982021;28;20444;-85
2023/04/15 11:48:16;;;;;;;2.22;1.63;;;15.00;48.00;;;;;;4981909;28;20034;-85
2023/04/15 11:50:42;;;;;;;1.52;1.42;;;15.00;48.50;;;;;;4959907;28;20109;-85
2023/04/15 11:53:09;;;;;;;2.28;2.05;;;14.80;48.10;;;;;;4981039;28;20050;-85
2023/04/15 11:55:46;;;;;;;3.88;2.92;;;14.70;50.90;;;;;;4959317;28;20563;-85
2023/04/15 11:58:15;;;;;;;3.70;3.28;;;14.70;55.10;;;;;;4976645;28;20019;-85
2023/04/15 12:00:58;;;;;;;3.38;2.42;;;14.80;55.00;;;;;;4974333;28;20480;-86
2023/04/15 12:03:42;;;;;;;4.35;3.17;;;14.80;54.50;;;;;;4974800;28;20061;-86
2023/04/15 12:06:15;;;;;;;5.30;3.05;;;14.70;56.50;;;;;;4985777;28;20057;-85
2023/04/15 12:08:56;;;;;;;3.72;3.03;;;14.50;57.50;;;;;;4972949;28;20030;-85
2023/04/15 12:11:34;;;;;;;3.78;2.80;;;14.30;58.60;;;;;;4974379;28;20046;-84
2023/04/15 12:14:07;;;;;;;5.43;2.95;;;14.20;58.70;;;;;;4985055;28;20034;-85
2023/04/15 12:16:35;;;;;;;3.80;2.70;;;14.00;57.70;;;;;;4995060;28;20034;-87
2023/04/15 12:19:06;;;;;;;4.38;2.92;;;14.00;57.80;;;;;;4977113;28;20048;-87
2023/04/15 12:21:40;;;;;;;2.92;2.65;;;14.00;57.90;;;;;;4969775;28;20035;-85
2023/04/15 12:24:14;;;;;;;3.05;2.75;;;13.90;58.70;;;;;;4966551;28;20416;-85
2023/04/15 12:26:55;;;;;;;5.10;3.65;;;13.90;58.20;;;;;;4964638;28;20093;-85
2023/04/15 12:29:26;;;;;;;4.22;2.78;;;13.90;59.70;;;;;;4958864;28;20074;-87
2023/04/15 12:31:57;;;;;;;8.13;3.20;;;13.90;59.70;;;;;;4975242;28;20381;-87
2023/04/15 12:34:27;;;;;;;3.63;3.13;;;13.90;59.50;;;;;;4957951;28;20535;-85
2023/04/15 12:36:53;;;;;;;3.75;2.50;;;13.90;59.30;;;;;;4984755;28;20408;-87
2023/04/15 12:39:24;;;;;;;3.05;2.75;;;14.00;59.00;;;;;;4994703;28;20076;-88
2023/04/15 12:41:50;;;;;;;2.47;2.28;;;14.00;59.00;;;;;;4976284;28;20042;-87
2023/04/15 12:44:16;;;;;;;3.85;2.92;;;13.90;58.40;;;;;;4970244;28;20031;-88
2023/04/15 12:46:42;;;;;;;2.67;2.47;;;13.80;58.00;;;;;;4957735;28;20046;-85
2023/04/15 12:49:08;;;;;;;8.20;3.00;;;13.70;58.70;;;;;;4974357;28;20039;-87
2023/04/15 12:51:33;;;;;;;3.25;2.45;;;13.70;59.20;;;;;;4974702;28;20043;-86